Terminal Aerodrome Forecast
Issued by NWS

Home | Current Version | Previous Version | Text Only | Print | Product List | Glossary On
Versions: 1 2 3 4 5 6 7 8 9 10 11 12 13 14 15 16 17
000
FTUS46 KSTO 070500
TAFRBL
TAF
KRBL 070531Z 0706/0806 36016KT P6SM FEW100 SCT200
     FM071600 35022G32KT P6SM FEW100 SCT250
     FM072300 36018G26KT P6SM SCT250
     FM080300 34010KT P6SM BKN250=

USA.gov is the U.S. government's official web portal to all federal, state and local government web resources and services.